sensor_id;sensor_type;location;lat;lon;timestamp;temperature;humidity
9414;DHT22;4746;35.664;139.738;2024-03-08T00:00:12;5.10;99.90
9414;DHT22;4746;35.664;139.738;2024-03-08T00:02:42;5.20;99.90
9414;DHT22;4746;35.664;139.738;2024-03-08T00:05:09;5.40;99.90
9414;DHT22;4746;35.664;139.738;2024-03-08T00:07:38;5.40;99.90
9414;DHT22;4746;35.664;139.738;2024-03-08T00:10:07;5.30;99.90
9414;DHT22;4746;35.664;139.738;2024-03-08T00:12:40;5.30;99.90
9414;DHT22;4746;35.664;139.738;2024-03-08T00:15:10;5.40;99.90
9414;DHT22;4746;35.664;139.738;2024-03-08T00:17:41;5.30;99.90
9414;DHT22;4746;35.664;139.738;2024-03-08T00:20:09;5.20;99.90
9414;DHT22;4746;35.664;139.738;2024-03-08T00:22:38;5.20;99.90
9414;DHT22;4746;35.664;139.738;2024-03-08T00:25:06;5.30;99.90
9414;DHT22;4746;35.664;139.738;2024-03-08T00:27:38;5.30;99.90
9414;DHT22;4746;35.664;139.738;2024-03-08T00:30:09;5.40;99.90
9414;DHT22;4746;35.664;139.738;2024-03-08T00:32:39;5.60;99.90
9414;DHT22;4746;35.664;139.738;2024-03-08T00:35:07;5.70;99.90
9414;DHT22;4746;35.664;139.738;2024-03-08T00:37:35;5.60;99.90
9414;DHT22;4746;35.664;139.738;2024-03-08T00:40:03;5.60;99.90
9414;DHT22;4746;35.664;139.738;2024-03-08T00:42:35;5.70;99.90
9414;DHT22;4746;35.664;139.738;2024-03-08T00:45:05;5.60;99.90
9414;DHT22;4746;35.664;139.738;2024-03-08T00:47:32;5.70;99.90
9414;DHT22;4746;35.664;139.738;2024-03-08T00:50:00;5.90;99.90
9414;DHT22;4746;35.664;139.738;2024-03-08T00:52:30;5.90;99.90
9414;DHT22;4746;35.664;139.738;2024-03-08T00:54:57;6.00;99.90
9414;DHT22;4746;35.664;139.738;2024-03-08T00:57:25;6.00;99.90
9414;DHT22;4746;35.664;139.738;2024-03-08T00:59:54;6.00;99.90
9414;DHT22;4746;35.664;139.738;2024-03-08T01:02:22;6.20;99.90
9414;DHT22;4746;35.664;139.738;2024-03-08T01:04:50;6.30;99.90
9414;DHT22;4746;35.664;139.738;2024-03-08T01:07:17;6.30;99.90
9414;DHT22;4746;35.664;139.738;2024-03-08T01:09:45;6.20;99.90
9414;DHT22;4746;35.664;139.738;2024-03-08T01:12:12;6.30;99.90
9414;DHT22;4746;35.664;139.738;2024-03-08T01:14:40;6.40;99.90
9414;DHT22;4746;35.664;139.738;2024-03-08T01:17:08;6.30;99.90
9414;DHT22;4746;35.664;139.738;2024-03-08T01:19:36;6.30;99.90
9414;DHT22;4746;35.664;139.738;2024-03-08T01:22:03;6.40;99.90
9414;DHT22;4746;35.664;139.738;2024-03-08T01:24:31;6.40;99.90
9414;DHT22;4746;35.664;139.738;2024-03-08T01:26:59;6.30;99.90
9414;DHT22;4746;35.664;139.738;2024-03-08T01:29:27;6.30;99.90
9414;DHT22;4746;35.664;139.738;2024-03-08T01:31:58;6.30;99.90
9414;DHT22;4746;35.664;139.738;2024-03-08T01:34:28;6.30;99.90
9414;DHT22;4746;35.664;139.738;2024-03-08T01:36:55;6.20;99.90
9414;DHT22;4746;35.664;139.738;2024-03-08T01:39:23;6.30;99.90
9414;DHT22;4746;35.664;139.738;2024-03-08T01:41:51;6.50;99.90
9414;DHT22;4746;35.664;139.738;2024-03-08T01:44:20;6.60;99.90
9414;DHT22;4746;35.664;139.738;2024-03-08T01:46:48;6.60;99.90
9414;DHT22;4746;35.664;139.738;2024-03-08T01:49:20;6.70;99.90
9414;DHT22;4746;35.664;139.738;2024-03-08T01:51:50;6.80;99.90
9414;DHT22;4746;35.664;139.738;2024-03-08T01:54:19;6.90;99.90
9414;DHT22;4746;35.664;139.738;2024-03-08T01:56:48;7.00;99.90
9414;DHT22;4746;35.664;139.738;2024-03-08T01:59:16;7.10;99.90
9414;DHT22;4746;35.664;139.738;2024-03-08T02:01:44;7.20;99.90
9414;DHT22;4746;35.664;139.738;2024-03-08T02:04:12;7.20;99.90
9414;DHT22;4746;35.664;139.738;2024-03-08T02:06:40;7.20;99.90
9414;DHT22;4746;35.664;139.738;2024-03-08T02:09:07;7.30;99.90
9414;DHT22;4746;35.664;139.738;2024-03-08T02:11:36;7.50;99.90
9414;DHT22;4746;35.664;139.738;2024-03-08T02:14:04;7.80;99.90
9414;DHT22;4746;35.664;139.738;2024-03-08T02:16:32;8.10;99.90
9414;DHT22;4746;35.664;139.738;2024-03-08T02:19:00;8.30;99.90
9414;DHT22;4746;35.664;139.738;2024-03-08T02:21:29;8.60;99.90
9414;DHT22;4746;35.664;139.738;2024-03-08T02:23:57;8.50;99.90
9414;DHT22;4746;35.664;139.738;2024-03-08T02:26:25;8.70;99.90
9414;DHT22;4746;35.664;139.738;2024-03-08T02:28:53;8.80;99.90
9414;DHT22;4746;35.664;139.738;2024-03-08T02:31:21;8.90;99.90
9414;DHT22;4746;35.664;139.738;2024-03-08T02:33:48;8.90;99.90
9414;DHT22;4746;35.664;139.738;2024-03-08T02:36:16;8.90;99.90
9414;DHT22;4746;35.664;139.738;2024-03-08T02:38:43;8.90;99.90
9414;DHT22;4746;35.664;139.738;2024-03-08T02:41:11;9.10;99.90
9414;DHT22;4746;35.664;139.738;2024-03-08T02:43:38;9.20;99.90
9414;DHT22;4746;35.664;139.738;2024-03-08T02:46:06;9.30;99.90
9414;DHT22;4746;35.664;139.738;2024-03-08T02:48:33;9.30;99.90
9414;DHT22;4746;35.664;139.738;2024-03-08T02:51:01;9.20;99.90
9414;DHT22;4746;35.664;139.738;2024-03-08T02:53:29;9.10;99.90
9414;DHT22;4746;35.664;139.738;2024-03-08T02:55:57;9.10;99.90
9414;DHT22;4746;35.664;139.738;2024-03-08T02:58:25;9.20;99.90
9414;DHT22;4746;35.664;139.738;2024-03-08T03:00:53;9.30;99.90
9414;DHT22;4746;35.664;139.738;2024-03-08T03:03:21;9.40;99.90
9414;DHT22;4746;35.664;139.738;2024-03-08T03:05:48;9.70;99.90
9414;DHT22;4746;35.664;139.738;2024-03-08T03:08:16;9.90;99.90
9414;DHT22;4746;35.664;139.738;2024-03-08T03:10:43;10.20;99.90
9414;DHT22;4746;35.664;139.738;2024-03-08T03:13:11;10.30;99.90
9414;DHT22;4746;35.664;139.738;2024-03-08T03:15:40;10.30;99.90
9414;DHT22;4746;35.664;139.738;2024-03-08T03:18:11;10.40;99.90
9414;DHT22;4746;35.664;139.738;2024-03-08T03:20:38;10.70;99.90
9414;DHT22;4746;35.664;139.738;2024-03-08T03:23:09;10.80;99.90
9414;DHT22;4746;35.664;139.738;2024-03-08T03:25:40;10.80;99.90
9414;DHT22;4746;35.664;139.738;2024-03-08T03:28:07;10.90;99.90
9414;DHT22;4746;35.664;139.738;2024-03-08T03:30:37;11.10;99.90
9414;DHT22;4746;35.664;139.738;2024-03-08T03:33:05;11.40;99.90
9414;DHT22;4746;35.664;139.738;2024-03-08T03:35:33;11.50;99.90
9414;DHT22;4746;35.664;139.738;2024-03-08T03:38:02;11.60;99.90
9414;DHT22;4746;35.664;139.738;2024-03-08T03:40:38;11.60;99.90
9414;DHT22;4746;35.664;139.738;2024-03-08T03:43:07;11.70;99.90
9414;DHT22;4746;35.664;139.738;2024-03-08T03:45:36;11.70;99.90
9414;DHT22;4746;35.664;139.738;2024-03-08T03:48:05;11.70;99.90
9414;DHT22;4746;35.664;139.738;2024-03-08T03:50:35;11.70;99.90
9414;DHT22;4746;35.664;139.738;2024-03-08T03:53:04;11.80;99.90
9414;DHT22;4746;35.664;139.738;2024-03-08T03:55:35;11.90;99.90
9414;DHT22;4746;35.664;139.738;2024-03-08T03:58:05;12.00;99.90
9414;DHT22;4746;35.664;139.738;2024-03-08T04:00:32;12.10;99.90
9414;DHT22;4746;35.664;139.738;2024-03-08T04:03:00;12.30;99.90
9414;DHT22;4746;35.664;139.738;2024-03-08T04:05:29;12.40;99.90
9414;DHT22;4746;35.664;139.738;2024-03-08T04:07:57;12.30;99.90
9414;DHT22;4746;35.664;139.738;2024-03-08T04:10:24;12.30;99.90
9414;DHT22;4746;35.664;139.738;2024-03-08T04:12:52;12.30;99.90
9414;DHT22;4746;35.664;139.738;2024-03-08T04:15:19;12.10;99.90
9414;DHT22;4746;35.664;139.738;2024-03-08T04:17:47;12.10;99.90
9414;DHT22;4746;35.664;139.738;2024-03-08T04:20:14;12.10;99.90
9414;DHT22;4746;35.664;139.738;2024-03-08T04:22:43;12.30;99.90
9414;DHT22;4746;35.664;139.738;2024-03-08T04:25:15;12.50;99.90
9414;DHT22;4746;35.664;139.738;2024-03-08T04:27:43;12.70;99.90
9414;DHT22;4746;35.664;139.738;2024-03-08T04:30:11;13.00;99.90
9414;DHT22;4746;35.664;139.738;2024-03-08T04:32:39;13.50;99.90
9414;DHT22;4746;35.664;139.738;2024-03-08T04:35:08;13.90;99.90
9414;DHT22;4746;35.664;139.738;2024-03-08T04:37:35;14.20;99.90
9414;DHT22;4746;35.664;139.738;2024-03-08T04:40:03;14.30;99.90
9414;DHT22;4746;35.664;139.738;2024-03-08T04:42:32;14.20;99.90
9414;DHT22;4746;35.664;139.738;2024-03-08T04:45:00;14.40;99.90
9414;DHT22;4746;35.664;139.738;2024-03-08T04:47:28;14.80;99.90
9414;DHT22;4746;35.664;139.738;2024-03-08T04:49:56;15.30;99.90
9414;DHT22;4746;35.664;139.738;2024-03-08T04:52:24;15.10;99.90
9414;DHT22;4746;35.664;139.738;2024-03-08T04:54:52;15.10;99.90
9414;DHT22;4746;35.664;139.738;2024-03-08T04:57:19;15.20;99.90
9414;DHT22;4746;35.664;139.738;2024-03-08T04:59:47;15.40;99.90
9414;DHT22;4746;35.664;139.738;2024-03-08T05:02:15;15.60;99.90
9414;DHT22;4746;35.664;139.738;2024-03-08T05:04:43;16.00;99.90
9414;DHT22;4746;35.664;139.738;2024-03-08T05:07:11;16.30;99.90
9414;DHT22;4746;35.664;139.738;2024-03-08T05:09:38;16.70;95.20
9414;DHT22;4746;35.664;139.738;2024-03-08T05:12:08;17.10;94.00
9414;DHT22;4746;35.664;139.738;2024-03-08T05:14:36;17.30;92.20
9414;DHT22;4746;35.664;139.738;2024-03-08T05:17:04;17.60;87.20
9414;DHT22;4746;35.664;139.738;2024-03-08T05:19:33;17.70;78.50
9414;DHT22;4746;35.664;139.738;2024-03-08T05:22:04;17.80;73.60
9414;DHT22;4746;35.664;139.738;2024-03-08T05:24:31;18.20;71.70
9414;DHT22;4746;35.664;139.738;2024-03-08T05:27:00;18.80;69.40
9414;DHT22;4746;35.664;139.738;2024-03-08T05:29:30;19.40;68.30
9414;DHT22;4746;35.664;139.738;2024-03-08T05:31:57;19.80;57.20
9414;DHT22;4746;35.664;139.738;2024-03-08T05:34:25;20.20;53.20
9414;DHT22;4746;35.664;139.738;2024-03-08T05:36:55;20.80;53.50
9414;DHT22;4746;35.664;139.738;2024-03-08T05:39:24;21.40;52.20
9414;DHT22;4746;35.664;139.738;2024-03-08T05:41:53;21.90;46.70
9414;DHT22;4746;35.664;139.738;2024-03-08T05:44:21;22.40;44.90
9414;DHT22;4746;35.664;139.738;2024-03-08T05:46:49;23.00;44.10
9414;DHT22;4746;35.664;139.738;2024-03-08T05:49:17;23.40;40.90
9414;DHT22;4746;35.664;139.738;2024-03-08T05:51:44;24.00;38.90
9414;DHT22;4746;35.664;139.738;2024-03-08T05:54:13;24.50;36.60
9414;DHT22;4746;35.664;139.738;2024-03-08T05:56:45;24.80;35.20
9414;DHT22;4746;35.664;139.738;2024-03-08T05:59:14;24.90;33.80
9414;DHT22;4746;35.664;139.738;2024-03-08T06:01:44;25.20;31.80
9414;DHT22;4746;35.664;139.738;2024-03-08T06:04:13;25.60;30.60
9414;DHT22;4746;35.664;139.738;2024-03-08T06:06:40;25.70;28.30
9414;DHT22;4746;35.664;139.738;2024-03-08T06:09:08;25.50;28.40
9414;DHT22;4746;35.664;139.738;2024-03-08T06:11:40;25.50;27.90
9414;DHT22;4746;35.664;139.738;2024-03-08T06:14:10;25.90;27.80
9414;DHT22;4746;35.664;139.738;2024-03-08T06:16:47;26.00;26.50
9414;DHT22;4746;35.664;139.738;2024-03-08T06:19:21;26.00;26.30
9414;DHT22;4746;35.664;139.738;2024-03-08T06:21:49;25.90;25.70
9414;DHT22;4746;35.664;139.738;2024-03-08T06:24:18;26.10;25.90
9414;DHT22;4746;35.664;139.738;2024-03-08T06:26:46;25.80;25.30
9414;DHT22;4746;35.664;139.738;2024-03-08T06:29:15;25.50;25.20
9414;DHT22;4746;35.664;139.738;2024-03-08T06:31:45;24.90;25.00
9414;DHT22;4746;35.664;139.738;2024-03-08T06:34:13;24.50;24.60
9414;DHT22;4746;35.664;139.738;2024-03-08T06:36:41;23.90;24.60
9414;DHT22;4746;35.664;139.738;2024-03-08T06:39:09;23.50;24.90
9414;DHT22;4746;35.664;139.738;2024-03-08T06:41:37;23.50;25.40
9414;DHT22;4746;35.664;139.738;2024-03-08T06:44:05;23.50;25.40
9414;DHT22;4746;35.664;139.738;2024-03-08T06:46:34;23.00;25.10
9414;DHT22;4746;35.664;139.738;2024-03-08T06:49:02;22.10;25.10
9414;DHT22;4746;35.664;139.738;2024-03-08T06:51:29;20.90;25.60
9414;DHT22;4746;35.664;139.738;2024-03-08T06:53:57;20.10;26.30
9414;DHT22;4746;35.664;139.738;2024-03-08T06:56:24;19.30;26.80
9414;DHT22;4746;35.664;139.738;2024-03-08T06:58:54;18.40;27.50
9414;DHT22;4746;35.664;139.738;2024-03-08T07:01:22;17.80;28.30
9414;DHT22;4746;35.664;139.738;2024-03-08T07:03:49;17.30;28.90
9414;DHT22;4746;35.664;139.738;2024-03-08T07:06:19;16.90;29.80
9414;DHT22;4746;35.664;139.738;2024-03-08T07:08:46;16.60;30.70
9414;DHT22;4746;35.664;139.738;2024-03-08T07:11:15;16.30;31.70
9414;DHT22;4746;35.664;139.738;2024-03-08T07:13:45;16.00;32.50
9414;DHT22;4746;35.664;139.738;2024-03-08T07:16:13;15.70;33.90
9414;DHT22;4746;35.664;139.738;2024-03-08T07:18:40;15.60;35.10
9414;DHT22;4746;35.664;139.738;2024-03-08T07:21:10;15.50;36.40
9414;DHT22;4746;35.664;139.738;2024-03-08T07:23:37;15.30;39.20
9414;DHT22;4746;35.664;139.738;2024-03-08T07:26:34;15.20;42.40
9414;DHT22;4746;35.664;139.738;2024-03-08T07:29:01;15.00;48.20
9414;DHT22;4746;35.664;139.738;2024-03-08T07:31:29;14.80;55.00
9414;DHT22;4746;35.664;139.738;2024-03-08T07:34:08;14.70;63.70
9414;DHT22;4746;35.664;139.738;2024-03-08T07:36:36;14.40;74.40
9414;DHT22;4746;35.664;139.738;2024-03-08T07:39:03;14.20;86.70
9414;DHT22;4746;35.664;139.738;2024-03-08T07:41:38;14.00;93.20
9414;DHT22;4746;35.664;139.738;2024-03-08T07:44:09;13.90;97.50
9414;DHT22;4746;35.664;139.738;2024-03-08T07:46:37;13.80;99.90
9414;DHT22;4746;35.664;139.738;2024-03-08T07:49:05;13.70;99.90
9414;DHT22;4746;35.664;139.738;2024-03-08T07:51:32;13.60;99.90
9414;DHT22;4746;35.664;139.738;2024-03-08T07:54:01;13.50;99.90
9414;DHT22;4746;35.664;139.738;2024-03-08T07:56:31;13.40;99.90
9414;DHT22;4746;35.664;139.738;2024-03-08T07:58:58;13.40;99.90
9414;DHT22;4746;35.664;139.738;2024-03-08T08:01:26;13.50;99.90
9414;DHT22;4746;35.664;139.738;2024-03-08T08:03:53;13.70;99.90
9414;DHT22;4746;35.664;139.738;2024-03-08T08:06:23;13.80;99.90
9414;DHT22;4746;35.664;139.738;2024-03-08T08:08:51;13.90;99.90
9414;DHT22;4746;35.664;139.738;2024-03-08T08:11:20;14.00;96.90
9414;DHT22;4746;35.664;139.738;2024-03-08T08:13:47;13.90;96.40
9414;DHT22;4746;35.664;139.738;2024-03-08T08:16:15;13.90;94.60
9414;DHT22;4746;35.664;139.738;2024-03-08T08:18:42;13.80;96.30
9414;DHT22;4746;35.664;139.738;2024-03-08T08:21:14;13.60;96.30
9414;DHT22;4746;35.664;139.738;2024-03-08T08:23:41;13.50;99.40
9414;DHT22;4746;35.664;139.738;2024-03-08T08:26:10;13.40;99.90
9414;DHT22;4746;35.664;139.738;2024-03-08T08:28:37;13.20;99.90
9414;DHT22;4746;35.664;139.738;2024-03-08T08:31:07;13.10;99.90
9414;DHT22;4746;35.664;139.738;2024-03-08T08:33:34;13.00;99.90
9414;DHT22;4746;35.664;139.738;2024-03-08T08:36:03;12.90;99.90
9414;DHT22;4746;35.664;139.738;2024-03-08T08:38:31;12.80;99.90
9414;DHT22;4746;35.664;139.738;2024-03-08T08:40:58;12.60;99.90
9414;DHT22;4746;35.664;139.738;2024-03-08T08:43:28;12.60;99.90
9414;DHT22;4746;35.664;139.738;2024-03-08T08:45:56;12.40;99.90
9414;DHT22;4746;35.664;139.738;2024-03-08T08:48:23;12.30;99.90
9414;DHT22;4746;35.664;139.738;2024-03-08T08:50:51;12.20;99.90
9414;DHT22;4746;35.664;139.738;2024-03-08T08:53:18;12.10;99.90
9414;DHT22;4746;35.664;139.738;2024-03-08T08:55:46;12.00;99.90
9414;DHT22;4746;35.664;139.738;2024-03-08T08:58:14;11.90;99.90
9414;DHT22;4746;35.664;139.738;2024-03-08T09:00:41;11.80;99.90
9414;DHT22;4746;35.664;139.738;2024-03-08T09:03:10;11.70;99.90
9414;DHT22;4746;35.664;139.738;2024-03-08T09:05:41;11.60;99.90
9414;DHT22;4746;35.664;139.738;2024-03-08T09:08:09;11.50;99.90
9414;DHT22;4746;35.664;139.738;2024-03-08T09:10:37;11.50;99.90
9414;DHT22;4746;35.664;139.738;2024-03-08T09:13:05;11.40;99.90
9414;DHT22;4746;35.664;139.738;2024-03-08T09:15:33;11.40;99.90
9414;DHT22;4746;35.664;139.738;2024-03-08T09:18:00;11.30;99.90
9414;DHT22;4746;35.664;139.738;2024-03-08T09:20:28;11.30;99.90
9414;DHT22;4746;35.664;139.738;2024-03-08T09:22:58;11.20;99.90
9414;DHT22;4746;35.664;139.738;2024-03-08T09:25:26;11.20;99.90
9414;DHT22;4746;35.664;139.738;2024-03-08T09:27:54;11.10;99.90
9414;DHT22;4746;35.664;139.738;2024-03-08T09:30:22;11.10;99.90
9414;DHT22;4746;35.664;139.738;2024-03-08T09:32:50;11.10;99.90
9414;DHT22;4746;35.664;139.738;2024-03-08T09:35:18;11.00;99.90
9414;DHT22;4746;35.664;139.738;2024-03-08T09:37:46;10.90;99.90
9414;DHT22;4746;35.664;139.738;2024-03-08T09:40:17;10.90;99.90
9414;DHT22;4746;35.664;139.738;2024-03-08T09:42:49;10.90;99.90
9414;DHT22;4746;35.664;139.738;2024-03-08T09:45:17;10.90;99.90
9414;DHT22;4746;35.664;139.738;2024-03-08T09:47:48;10.90;99.90
9414;DHT22;4746;35.664;139.738;2024-03-08T09:50:16;10.90;99.90
9414;DHT22;4746;35.664;139.738;2024-03-08T09:52:48;11.00;99.90
9414;DHT22;4746;35.664;139.738;2024-03-08T09:55:16;11.00;99.90
9414;DHT22;4746;35.664;139.738;2024-03-08T09:57:48;11.00;99.90
9414;DHT22;4746;35.664;139.738;2024-03-08T10:00:34;11.00;99.90
9414;DHT22;4746;35.664;139.738;2024-03-08T10:03:03;11.00;99.90
9414;DHT22;4746;35.664;139.738;2024-03-08T10:05:31;11.00;99.90
9414;DHT22;4746;35.664;139.738;2024-03-08T10:07:59;11.00;99.90
9414;DHT22;4746;35.664;139.738;2024-03-08T10:10:29;11.00;99.90
9414;DHT22;4746;35.664;139.738;2024-03-08T10:12:57;11.00;99.90
9414;DHT22;4746;35.664;139.738;2024-03-08T10:15:27;10.90;99.90
9414;DHT22;4746;35.664;139.738;2024-03-08T10:17:59;10.90;99.90
9414;DHT22;4746;35.664;139.738;2024-03-08T10:20:33;10.90;99.90
9414;DHT22;4746;35.664;139.738;2024-03-08T10:23:02;10.90;99.90
9414;DHT22;4746;35.664;139.738;2024-03-08T10:25:32;10.90;99.90
9414;DHT22;4746;35.664;139.738;2024-03-08T10:28:02;10.90;99.90
9414;DHT22;4746;35.664;139.738;2024-03-08T10:30:33;10.90;99.90
9414;DHT22;4746;35.664;139.738;2024-03-08T10:33:03;10.90;99.90
9414;DHT22;4746;35.664;139.738;2024-03-08T10:35:31;10.90;99.90
9414;DHT22;4746;35.664;139.738;2024-03-08T10:38:00;10.90;99.90
9414;DHT22;4746;35.664;139.738;2024-03-08T10:40:33;10.90;99.90
9414;DHT22;4746;35.664;139.738;2024-03-08T10:43:02;10.90;99.90
9414;DHT22;4746;35.664;139.738;2024-03-08T10:45:38;10.90;99.90
9414;DHT22;4746;35.664;139.738;2024-03-08T10:50:44;10.90;99.90
9414;DHT22;4746;35.664;139.738;2024-03-08T10:53:14;10.90;99.90
9414;DHT22;4746;35.664;139.738;2024-03-08T10:55:44;10.90;99.90
9414;DHT22;4746;35.664;139.738;2024-03-08T10:58:13;10.90;99.90
9414;DHT22;4746;35.664;139.738;2024-03-08T11:00:42;10.90;99.90
9414;DHT22;4746;35.664;139.738;2024-03-08T11:06:23;10.90;99.90
9414;DHT22;4746;35.664;139.738;2024-03-08T11:09:48;10.90;99.90
9414;DHT22;4746;35.664;139.738;2024-03-08T11:12:23;10.80;99.90
9414;DHT22;4746;35.664;139.738;2024-03-08T11:15:13;10.80;99.90
9414;DHT22;4746;35.664;139.738;2024-03-08T11:18:00;10.80;99.90
9414;DHT22;4746;35.664;139.738;2024-03-08T11:20:28;10.80;99.90
9414;DHT22;4746;35.664;139.738;2024-03-08T11:23:04;10.80;99.90
9414;DHT22;4746;35.664;139.738;2024-03-08T11:28:13;10.60;99.90
9414;DHT22;4746;35.664;139.738;2024-03-08T11:33:40;10.20;99.90
9414;DHT22;4746;35.664;139.738;2024-03-08T11:36:19;10.00;99.90
9414;DHT22;4746;35.664;139.738;2024-03-08T11:38:50;9.90;99.90
9414;DHT22;4746;35.664;139.738;2024-03-08T11:41:24;9.80;99.90
9414;DHT22;4746;35.664;139.738;2024-03-08T11:44:03;9.70;99.90
9414;DHT22;4746;35.664;139.738;2024-03-08T11:46:32;9.70;99.90
9414;DHT22;4746;35.664;139.738;2024-03-08T11:49:00;9.70;99.90
9414;DHT22;4746;35.664;139.738;2024-03-08T11:51:29;9.60;99.90
9414;DHT22;4746;35.664;139.738;2024-03-08T11:53:59;9.50;99.90
9414;DHT22;4746;35.664;139.738;2024-03-08T11:56:26;9.50;99.90
9414;DHT22;4746;35.664;139.738;2024-03-08T11:58:58;9.40;99.90
9414;DHT22;4746;35.664;139.738;2024-03-08T12:01:27;9.40;99.90
9414;DHT22;4746;35.664;139.738;2024-03-08T12:03:55;9.30;99.90
9414;DHT22;4746;35.664;139.738;2024-03-08T12:06:37;9.30;99.90
9414;DHT22;4746;35.664;139.738;2024-03-08T12:09:11;9.20;99.90
9414;DHT22;4746;35.664;139.738;2024-03-08T12:11:39;9.10;99.90
9414;DHT22;4746;35.664;139.738;2024-03-08T12:14:10;9.00;99.90
9414;DHT22;4746;35.664;139.738;2024-03-08T12:16:38;9.00;99.90
9414;DHT22;4746;35.664;139.738;2024-03-08T12:19:06;9.00;99.90
9414;DHT22;4746;35.664;139.738;2024-03-08T12:21:36;9.10;99.90
9414;DHT22;4746;35.664;139.738;2024-03-08T12:24:09;9.10;99.90
9414;DHT22;4746;35.664;139.738;2024-03-08T12:26:38;9.10;99.90
9414;DHT22;4746;35.664;139.738;2024-03-08T12:29:19;9.00;99.90
9414;DHT22;4746;35.664;139.738;2024-03-08T12:31:59;9.00;99.90
9414;DHT22;4746;35.664;139.738;2024-03-08T12:34:31;8.90;99.90
9414;DHT22;4746;35.664;139.738;2024-03-08T12:37:00;8.80;99.90
9414;DHT22;4746;35.664;139.738;2024-03-08T12:39:29;8.80;99.90
9414;DHT22;4746;35.664;139.738;2024-03-08T12:41:57;8.80;99.90
9414;DHT22;4746;35.664;139.738;2024-03-08T12:44:26;8.80;99.90
9414;DHT22;4746;35.664;139.738;2024-03-08T12:46:55;8.80;99.90
9414;DHT22;4746;35.664;139.738;2024-03-08T12:49:25;8.80;99.90
9414;DHT22;4746;35.664;139.738;2024-03-08T12:51:53;8.80;99.90
9414;DHT22;4746;35.664;139.738;2024-03-08T12:54:22;8.80;99.90
9414;DHT22;4746;35.664;139.738;2024-03-08T12:56:50;8.80;99.90
9414;DHT22;4746;35.664;139.738;2024-03-08T12:59:21;8.80;99.90
9414;DHT22;4746;35.664;139.738;2024-03-08T13:01:50;8.90;99.90
9414;DHT22;4746;35.664;139.738;2024-03-08T13:04:19;8.90;99.90
9414;DHT22;4746;35.664;139.738;2024-03-08T13:06:47;8.90;99.90
9414;DHT22;4746;35.664;139.738;2024-03-08T13:09:16;9.00;99.90
9414;DHT22;4746;35.664;139.738;2024-03-08T13:11:46;8.90;99.90
9414;DHT22;4746;35.664;139.738;2024-03-08T13:14:14;8.90;99.90
9414;DHT22;4746;35.664;139.738;2024-03-08T13:16:42;8.90;99.90
9414;DHT22;4746;35.664;139.738;2024-03-08T13:19:14;8.90;99.90
9414;DHT22;4746;35.664;139.738;2024-03-08T13:21:42;9.00;99.90
9414;DHT22;4746;35.664;139.738;2024-03-08T13:24:15;9.00;99.90
9414;DHT22;4746;35.664;139.738;2024-03-08T13:26:42;8.90;99.90
9414;DHT22;4746;35.664;139.738;2024-03-08T13:29:10;8.90;99.90
9414;DHT22;4746;35.664;139.738;2024-03-08T13:31:38;8.90;99.90
9414;DHT22;4746;35.664;139.738;2024-03-08T13:34:06;8.80;99.90
9414;DHT22;4746;35.664;139.738;2024-03-08T13:36:34;8.60;99.90
9414;DHT22;4746;35.664;139.738;2024-03-08T13:39:08;8.60;99.90
9414;DHT22;4746;35.664;139.738;2024-03-08T13:41:47;8.50;99.90
9414;DHT22;4746;35.664;139.738;2024-03-08T13:44:14;8.50;99.90
9414;DHT22;4746;35.664;139.738;2024-03-08T13:46:46;8.50;99.90
9414;DHT22;4746;35.664;139.738;2024-03-08T13:49:17;8.50;99.90
9414;DHT22;4746;35.664;139.738;2024-03-08T13:51:45;8.50;99.90
9414;DHT22;4746;35.664;139.738;2024-03-08T13:54:18;8.40;99.90
9414;DHT22;4746;35.664;139.738;2024-03-08T13:56:50;8.40;99.90
9414;DHT22;4746;35.664;139.738;2024-03-08T13:59:21;8.30;99.90
9414;DHT22;4746;35.664;139.738;2024-03-08T14:01:52;8.30;99.90
9414;DHT22;4746;35.664;139.738;2024-03-08T14:04:20;8.30;99.90
9414;DHT22;4746;35.664;139.738;2024-03-08T14:06:48;8.30;99.90
9414;DHT22;4746;35.664;139.738;2024-03-08T14:09:17;8.40;99.90
9414;DHT22;4746;35.664;139.738;2024-03-08T14:11:45;8.40;99.90
9414;DHT22;4746;35.664;139.738;2024-03-08T14:14:14;8.40;99.90
9414;DHT22;4746;35.664;139.738;2024-03-08T14:16:52;8.40;99.90
9414;DHT22;4746;35.664;139.738;2024-03-08T14:19:21;8.40;99.90
9414;DHT22;4746;35.664;139.738;2024-03-08T14:21:49;8.40;99.90
9414;DHT22;4746;35.664;139.738;2024-03-08T14:24:20;8.40;99.90
9414;DHT22;4746;35.664;139.738;2024-03-08T14:26:47;8.40;99.90
9414;DHT22;4746;35.664;139.738;2024-03-08T14:29:16;8.40;99.90
9414;DHT22;4746;35.664;139.738;2024-03-08T14:31:47;8.40;99.90
9414;DHT22;4746;35.664;139.738;2024-03-08T14:34:15;8.40;99.90
9414;DHT22;4746;35.664;139.738;2024-03-08T14:36:43;8.40;99.90
9414;DHT22;4746;35.664;139.738;2024-03-08T14:39:11;8.30;99.90
9414;DHT22;4746;35.664;139.738;2024-03-08T14:41:39;8.30;99.90
9414;DHT22;4746;35.664;139.738;2024-03-08T14:44:07;8.30;99.90
9414;DHT22;4746;35.664;139.738;2024-03-08T14:46:36;8.30;99.90
9414;DHT22;4746;35.664;139.738;2024-03-08T14:49:03;8.20;99.90
9414;DHT22;4746;35.664;139.738;2024-03-08T14:51:32;8.20;99.90
9414;DHT22;4746;35.664;139.738;2024-03-08T14:53:59;8.20;99.90
9414;DHT22;4746;35.664;139.738;2024-03-08T14:56:27;8.20;99.90
9414;DHT22;4746;35.664;139.738;2024-03-08T14:58:57;8.20;99.90
9414;DHT22;4746;35.664;139.738;2024-03-08T15:01:25;8.20;99.90
9414;DHT22;4746;35.664;139.738;2024-03-08T15:03:56;8.20;99.90
9414;DHT22;4746;35.664;139.738;2024-03-08T15:06:27;8.20;99.90
9414;DHT22;4746;35.664;139.738;2024-03-08T15:08:57;8.20;99.90
9414;DHT22;4746;35.664;139.738;2024-03-08T15:11:25;8.20;99.90
9414;DHT22;4746;35.664;139.738;2024-03-08T15:13:52;8.20;99.90
9414;DHT22;4746;35.664;139.738;2024-03-08T15:16:20;8.10;99.90
9414;DHT22;4746;35.664;139.738;2024-03-08T15:18:50;8.10;99.90
9414;DHT22;4746;35.664;139.738;2024-03-08T15:21:19;8.10;99.90
9414;DHT22;4746;35.664;139.738;2024-03-08T15:23:51;8.10;99.90
9414;DHT22;4746;35.664;139.738;2024-03-08T15:26:20;8.00;99.90
9414;DHT22;4746;35.664;139.738;2024-03-08T15:28:48;8.00;99.90
9414;DHT22;4746;35.664;139.738;2024-03-08T15:31:18;7.90;99.90
9414;DHT22;4746;35.664;139.738;2024-03-08T15:33:47;7.90;99.90
9414;DHT22;4746;35.664;139.738;2024-03-08T15:36:18;7.90;99.90
9414;DHT22;4746;35.664;139.738;2024-03-08T15:38:47;7.90;99.90
9414;DHT22;4746;35.664;139.738;2024-03-08T15:41:15;7.90;99.90
9414;DHT22;4746;35.664;139.738;2024-03-08T15:43:44;8.00;99.90
9414;DHT22;4746;35.664;139.738;2024-03-08T15:46:11;8.00;99.90
9414;DHT22;4746;35.664;139.738;2024-03-08T15:48:39;8.00;99.90
9414;DHT22;4746;35.664;139.738;2024-03-08T15:51:09;7.90;99.90
9414;DHT22;4746;35.664;139.738;2024-03-08T15:53:37;7.90;99.90
9414;DHT22;4746;35.664;139.738;2024-03-08T15:56:05;7.90;99.90
9414;DHT22;4746;35.664;139.738;2024-03-08T15:58:34;7.90;99.90
9414;DHT22;4746;35.664;139.738;2024-03-08T16:01:02;7.90;99.90